createdAt,value
2022-09-14T00:02:43.302Z,46.88
2022-09-14T00:05:29.403Z,46.92
2022-09-14T00:08:15.422Z,47.00
2022-09-14T00:11:10.311Z,47.15
2022-09-14T00:13:57.937Z,47.14
2022-09-14T00:16:44.679Z,46.94
2022-09-14T00:19:30.579Z,47.19
2022-09-14T00:22:16.498Z,47.05
2022-09-14T00:25:02.274Z,47.25
2022-09-14T00:27:47.889Z,46.96
2022-09-14T00:30:33.609Z,47.12
2022-09-14T00:33:19.571Z,47.27
2022-09-14T00:36:11.362Z,47.23
2022-09-14T00:38:58.196Z,47.12
2022-09-14T00:41:46.519Z,47.17
2022-09-14T00:44:32.622Z,47.17
2022-09-14T00:47:18.413Z,47.28
2022-09-14T00:50:05.711Z,47.34
2022-09-14T00:52:51.574Z,47.24
2022-09-14T00:55:37.823Z,47.41
2022-09-14T00:58:23.879Z,47.28
2022-09-14T01:01:10.494Z,47.20
2022-09-14T01:03:56.522Z,47.46
2022-09-14T01:06:53.873Z,47.20
2022-09-14T01:09:46.713Z,47.49
2022-09-14T01:12:45.338Z,47.57
2022-09-14T01:15:43.139Z,47.53
2022-09-14T01:18:51.210Z,47.80
2022-09-14T01:21:42.093Z,47.61
2022-09-14T01:24:49.644Z,47.91
2022-09-14T01:27:41.809Z,47.78
2022-09-14T01:30:29.003Z,48.07
2022-09-14T01:33:18.370Z,47.67
2022-09-14T01:36:07.082Z,47.58
2022-09-14T01:38:54.070Z,47.57
2022-09-14T01:41:40.183Z,47.60
2022-09-14T01:44:30.214Z,47.62
2022-09-14T01:47:20.565Z,47.57
2022-09-14T01:50:14.734Z,47.83
2022-09-14T01:53:43.907Z,47.97
2022-09-14T01:56:37.564Z,47.68
2022-09-14T01:59:26.587Z,47.68
2022-09-14T02:02:26.334Z,47.77
2022-09-14T02:05:31.169Z,47.64
2022-09-14T02:08:17.532Z,47.65
2022-09-14T02:11:03.459Z,47.66
2022-09-14T02:13:49.268Z,47.80
2022-09-14T02:16:35.832Z,47.89
2022-09-14T02:19:23.961Z,48.01
2022-09-14T02:22:10.064Z,47.94
2022-09-14T02:24:56.842Z,47.84
2022-09-14T02:27:42.961Z,47.97
2022-09-14T02:30:38.105Z,47.89
2022-09-14T02:33:35.157Z,47.98
2022-09-14T02:36:38.912Z,48.15
2022-09-14T02:40:14.537Z,48.25
2022-09-14T02:43:21.417Z,48.07
2022-09-14T02:46:06.976Z,47.91
2022-09-14T02:49:02.062Z,48.11
2022-09-14T02:51:47.528Z,48.06
2022-09-14T02:54:46.341Z,48.10
2022-09-14T02:57:32.109Z,48.06
2022-09-14T03:00:17.884Z,48.19
2022-09-14T03:03:05.161Z,48.27
2022-09-14T03:05:51.313Z,48.21
2022-09-14T03:08:37.535Z,48.07
2022-09-14T03:11:23.296Z,47.82
2022-09-14T03:14:11.017Z,48.08
2022-09-14T03:16:56.644Z,48.15
2022-09-14T03:19:42.419Z,48.00
2022-09-14T03:22:28.154Z,48.30
2022-09-14T03:25:14.691Z,48.21
2022-09-14T03:28:00.593Z,48.28
2022-09-14T03:30:46.634Z,48.15
2022-09-14T03:33:32.431Z,48.40
2022-09-14T03:36:19.426Z,48.05
2022-09-14T03:39:05.425Z,48.38
2022-09-14T03:41:51.123Z,48.21
2022-09-14T03:44:36.861Z,48.40
2022-09-14T03:47:22.800Z,48.38
2022-09-14T03:50:10.895Z,48.26
2022-09-14T03:52:57.078Z,48.28
2022-09-14T03:55:43.190Z,48.18
2022-09-14T03:58:32.007Z,48.48
2022-09-14T04:01:21.057Z,48.25
2022-09-14T04:04:06.870Z,48.36
2022-09-14T04:06:52.529Z,48.25
2022-09-14T04:09:38.826Z,48.22
2022-09-14T04:12:25.239Z,48.74
2022-09-14T04:15:10.886Z,48.37
2022-09-14T04:17:56.883Z,48.34
2022-09-14T04:20:42.530Z,48.66
2022-09-14T04:23:28.539Z,48.22
2022-09-14T04:26:17.230Z,48.57
2022-09-14T04:29:03.633Z,48.47
2022-09-14T04:31:49.387Z,48.35
2022-09-14T04:34:35.709Z,48.70
2022-09-14T04:37:21.513Z,48.31
2022-09-14T04:40:07.738Z,48.52
2022-09-14T04:42:53.718Z,48.53
2022-09-14T04:45:39.312Z,48.49
2022-09-14T04:48:25.033Z,48.55
2022-09-14T04:51:16.703Z,48.69
2022-09-14T04:54:04.543Z,48.41
2022-09-14T04:56:50.430Z,48.84
2022-09-14T04:59:36.134Z,48.58
2022-09-14T05:02:22.059Z,48.83
2022-09-14T05:05:08.642Z,48.70
2022-09-14T05:07:54.284Z,48.81
2022-09-14T05:10:39.999Z,48.50
2022-09-14T05:13:26.037Z,48.86
2022-09-14T05:16:25.370Z,48.82
2022-09-14T05:19:14.507Z,48.47
2022-09-14T05:22:00.277Z,48.61
2022-09-14T05:24:45.893Z,48.83
2022-09-14T05:27:31.659Z,48.66
2022-09-14T05:30:17.507Z,48.71
2022-09-14T05:33:03.524Z,48.79
2022-09-14T05:35:50.399Z,48.51
2022-09-14T05:38:38.130Z,48.83
2022-09-14T05:41:23.971Z,48.83
2022-09-14T05:44:09.641Z,48.60
2022-09-14T05:46:55.448Z,49.00
2022-09-14T05:49:41.305Z,48.90
2022-09-14T05:52:29.589Z,49.05
2022-09-14T05:55:15.722Z,48.64
2022-09-14T05:58:01.775Z,48.82
2022-09-14T06:00:48.106Z,48.86
2022-09-14T06:03:34.100Z,48.70
2022-09-14T06:06:21.000Z,48.84
2022-09-14T06:09:06.983Z,48.93
2022-09-14T06:11:52.937Z,48.99
2022-09-14T06:14:38.481Z,49.00
2022-09-14T06:17:24.330Z,49.01
2022-09-14T06:20:10.693Z,48.96
2022-09-14T06:22:56.515Z,48.82
2022-09-14T06:25:44.738Z,49.00
2022-09-14T06:28:31.107Z,49.28
2022-09-14T06:31:18.449Z,48.90
2022-09-14T06:34:04.960Z,48.97
2022-09-14T06:36:50.811Z,48.90
2022-09-14T06:39:36.968Z,48.97
2022-09-14T06:42:22.712Z,48.91
2022-09-14T06:45:11.164Z,48.83
2022-09-14T06:47:57.690Z,48.86
2022-09-14T06:50:43.860Z,49.19
2022-09-14T06:53:29.625Z,49.07
2022-09-14T06:56:17.360Z,49.14
2022-09-14T06:59:04.595Z,48.91
2022-09-14T07:01:50.813Z,49.29
2022-09-14T07:04:37.058Z,49.11
2022-09-14T07:07:23.050Z,49.18
2022-09-14T07:10:08.808Z,49.38
2022-09-14T07:12:55.294Z,49.30
2022-09-14T07:15:40.819Z,49.14
2022-09-14T07:18:32.272Z,49.17
2022-09-14T07:21:19.458Z,49.32
2022-09-14T07:24:05.378Z,49.28
2022-09-14T07:26:51.200Z,49.34
2022-09-14T07:29:36.939Z,49.49
2022-09-14T07:32:22.801Z,49.49
2022-09-14T07:35:08.866Z,49.34
2022-09-14T07:37:55.000Z,49.30
2022-09-14T07:40:40.825Z,49.19
2022-09-14T07:43:26.778Z,49.00
2022-09-14T07:46:12.974Z,48.97
2022-09-14T07:49:02.376Z,48.89
2022-09-14T07:51:49.010Z,49.00
2022-09-14T07:54:35.616Z,48.65
2022-09-14T07:57:33.993Z,48.71
2022-09-14T08:00:27.364Z,55.40
2022-09-14T08:03:13.030Z,59.23
2022-09-14T08:06:03.132Z,61.67
2022-09-14T08:08:50.578Z,55.46
2022-09-14T08:11:37.163Z,55.43
2022-09-14T08:14:23.473Z,51.98
2022-09-14T08:17:10.726Z,51.84
2022-09-14T08:19:57.017Z,51.41
2022-09-14T08:22:44.814Z,51.43
2022-09-14T08:25:31.359Z,50.85
2022-09-14T08:28:17.321Z,50.95
2022-09-14T08:48:06.231Z,56.20
2022-09-14T09:04:14.026Z,56.40
2022-09-14T09:07:11.954Z,56.17
2022-09-14T09:09:58.272Z,56.01
2022-09-14T09:12:58.758Z,55.85
2022-09-14T09:15:53.327Z,55.53
2022-09-14T09:19:01.707Z,54.67
2022-09-14T09:21:48.359Z,54.86
2022-09-14T09:24:40.699Z,55.06
2022-09-14T09:27:27.870Z,54.77
2022-09-14T09:30:15.659Z,54.91
2022-09-14T09:33:02.108Z,54.84
2022-09-14T09:36:16.053Z,54.78
2022-09-14T09:39:05.468Z,54.62
2022-09-14T09:41:57.587Z,54.35
2022-09-14T09:45:06.742Z,54.24
2022-09-14T09:47:52.547Z,53.96
2022-09-14T09:50:59.794Z,53.71
2022-09-14T09:54:19.509Z,53.38
2022-09-14T09:57:31.903Z,52.65
2022-09-14T10:00:24.368Z,52.39
2022-09-14T10:03:28.302Z,52.45
2022-09-14T10:06:14.837Z,51.93
2022-09-14T10:09:00.855Z,51.89
2022-09-14T10:11:48.123Z,51.62
2022-09-14T10:14:35.961Z,51.38
2022-09-14T10:17:23.247Z,51.39
2022-09-14T10:20:22.507Z,50.99
2022-09-14T10:23:18.725Z,50.57
2022-09-14T10:26:10.872Z,50.20
2022-09-14T10:29:20.721Z,50.06
2022-09-14T10:32:17.757Z,49.84
2022-09-14T10:35:15.614Z,49.68
2022-09-14T10:38:20.239Z,49.23
2022-09-14T10:41:36.935Z,48.47
2022-09-14T10:44:44.067Z,48.85
2022-09-14T10:47:45.395Z,48.68
2022-09-14T10:50:41.293Z,46.99
2022-09-14T10:53:57.590Z,46.85
2022-09-14T10:57:14.211Z,46.08
2022-09-14T11:00:13.170Z,46.01
2022-09-14T11:03:09.266Z,45.65
2022-09-14T11:06:02.748Z,44.87
2022-09-14T11:09:19.845Z,44.30
2022-09-14T11:12:38.398Z,44.49
2022-09-14T11:15:31.804Z,44.29
2022-09-14T11:19:02.836Z,43.69
2022-09-14T11:21:50.673Z,43.58
2022-09-14T11:25:13.016Z,43.49
2022-09-14T11:28:01.145Z,43.21
2022-09-14T11:31:31.680Z,42.34
2022-09-14T11:34:48.143Z,42.08
2022-09-14T11:37:40.690Z,42.03
2022-09-14T11:40:46.456Z,40.62
2022-09-14T11:43:56.463Z,39.54
2022-09-14T11:47:08.878Z,38.50
2022-09-14T11:50:16.849Z,38.70
2022-09-14T11:53:09.620Z,38.08
2022-09-14T11:55:55.812Z,38.10
2022-09-14T11:58:41.522Z,38.06
2022-09-14T12:01:32.230Z,37.00
2022-09-14T12:04:19.511Z,37.13
2022-09-14T12:07:05.672Z,36.79
2022-09-14T12:09:53.369Z,35.39
2022-09-14T12:12:40.697Z,34.43
2022-09-14T12:15:26.545Z,34.13
2022-09-14T12:18:13.412Z,33.63
2022-09-14T12:21:18.084Z,32.60
2022-09-14T12:24:14.669Z,32.75
2022-09-14T12:27:15.508Z,31.99
2022-09-14T12:30:01.223Z,31.72
2022-09-14T12:32:47.348Z,31.98
2022-09-14T12:35:45.914Z,31.81
2022-09-14T12:38:31.883Z,31.92
2022-09-14T12:41:20.656Z,32.30
2022-09-14T12:44:33.180Z,31.42
2022-09-14T12:47:25.484Z,32.09
2022-09-14T12:50:19.874Z,31.94
2022-09-14T12:53:35.339Z,32.49
2022-09-14T12:56:31.313Z,32.38
2022-09-14T12:59:38.896Z,32.58
2022-09-14T13:02:48.493Z,32.79
2022-09-14T13:05:34.740Z,32.72
2022-09-14T13:08:23.737Z,32.80
2022-09-14T13:11:10.192Z,32.91
2022-09-14T13:13:56.484Z,32.55
2022-09-14T13:16:44.641Z,32.87
2022-09-14T13:19:32.776Z,33.02
2022-09-14T13:22:24.421Z,32.86
2022-09-14T13:25:27.130Z,33.68
2022-09-14T13:28:18.144Z,33.58
2022-09-14T13:31:05.431Z,33.50
2022-09-14T13:33:52.872Z,33.67
2022-09-14T13:36:42.442Z,33.97
2022-09-14T13:39:34.514Z,34.01
2022-09-14T13:42:21.879Z,34.26
2022-09-14T13:45:08.683Z,34.02
2022-09-14T13:47:55.070Z,34.48
2022-09-14T13:50:44.090Z,34.42
2022-09-14T13:53:42.087Z,34.65
2022-09-14T13:56:33.985Z,34.90
2022-09-14T13:59:21.807Z,35.13
2022-09-14T14:02:16.398Z,35.38
2022-09-14T14:05:04.098Z,35.41
2022-09-14T14:07:50.081Z,35.73
2022-09-14T14:11:41.247Z,35.89
2022-09-14T14:14:31.313Z,35.87
2022-09-14T14:17:37.003Z,36.08
2022-09-14T14:20:36.753Z,36.22
2022-09-14T14:23:23.176Z,36.51
2022-09-14T14:26:14.601Z,36.32
2022-09-14T14:29:09.771Z,36.55
2022-09-14T14:31:56.613Z,36.88
2022-09-14T14:34:42.875Z,36.93
2022-09-14T14:37:28.734Z,36.87
2022-09-14T14:40:15.892Z,37.01
2022-09-14T14:43:05.562Z,37.06
2022-09-14T14:45:57.749Z,37.00
2022-09-14T14:48:43.820Z,37.20
2022-09-14T14:51:30.496Z,37.18
2022-09-14T14:54:18.837Z,37.58
2022-09-14T14:57:05.288Z,37.95
2022-09-14T14:59:52.858Z,38.00
2022-09-14T15:02:38.898Z,37.96
2022-09-14T15:05:25.677Z,38.20
2022-09-14T15:08:16.248Z,38.20
2022-09-14T15:11:02.341Z,38.29
2022-09-14T15:13:48.748Z,38.63
2022-09-14T15:16:35.148Z,38.69
2022-09-14T15:19:21.438Z,38.79
2022-09-14T15:22:07.456Z,38.96
2022-09-14T15:24:53.371Z,39.10
2022-09-14T15:27:40.412Z,39.15
2022-09-14T15:30:26.644Z,39.35
2022-09-14T15:33:12.697Z,39.80
2022-09-14T15:35:58.800Z,39.93
2022-09-14T15:38:44.575Z,40.08
2022-09-14T15:41:30.400Z,40.40
2022-09-14T15:44:16.441Z,40.57
2022-09-14T15:47:02.184Z,40.60
2022-09-14T15:49:51.837Z,40.84
2022-09-14T15:52:39.040Z,40.88
2022-09-14T15:55:24.723Z,41.09
2022-09-14T15:58:11.447Z,41.14
2022-09-14T16:00:57.721Z,41.36
2022-09-14T16:03:44.145Z,41.31
2022-09-14T16:06:30.710Z,41.52
2022-09-14T16:09:18.279Z,41.65
2022-09-14T16:12:04.647Z,41.71
2022-09-14T16:14:50.507Z,41.82
2022-09-14T16:17:36.525Z,41.96
2022-09-14T16:20:22.864Z,42.03
2022-09-14T16:23:09.143Z,42.03
2022-09-14T16:25:55.152Z,42.20
2022-09-14T16:28:42.483Z,42.36
2022-09-14T16:31:34.674Z,42.39
2022-09-14T16:34:27.432Z,42.65
2022-09-14T16:37:13.839Z,42.93
2022-09-14T16:39:59.963Z,43.04
2022-09-14T16:42:48.095Z,43.30
2022-09-14T16:45:33.938Z,43.45
2022-09-14T16:48:19.810Z,43.44
2022-09-14T16:51:06.633Z,43.68
2022-09-14T16:53:52.922Z,43.99
2022-09-14T16:56:39.095Z,44.28
2022-09-14T16:59:25.611Z,44.24
2022-09-14T17:02:11.873Z,44.17
2022-09-14T17:04:58.304Z,44.39
2022-09-14T17:07:44.172Z,44.60
2022-09-14T17:10:34.362Z,44.81
2022-09-14T17:13:26.035Z,45.15
2022-09-14T17:16:19.893Z,45.32
2022-09-14T17:19:06.149Z,45.17
2022-09-14T17:21:52.245Z,45.26
2022-09-14T17:24:38.618Z,45.34
2022-09-14T17:27:24.334Z,45.59
2022-09-14T17:30:10.814Z,45.62
2022-09-14T17:32:56.669Z,45.82
2022-09-14T17:35:58.609Z,46.01
2022-09-14T17:38:44.990Z,45.80
2022-09-14T17:41:33.186Z,45.97
2022-09-14T17:44:20.052Z,46.08
2022-09-14T17:47:06.165Z,46.26
2022-09-14T17:49:52.278Z,46.38
2022-09-14T17:52:38.059Z,46.44
2022-09-14T17:55:24.755Z,46.58
2022-09-14T17:58:10.924Z,46.63
2022-09-14T18:01:30.748Z,47.07
2022-09-14T18:04:17.023Z,46.88
2022-09-14T18:07:04.778Z,47.01
2022-09-14T18:09:50.649Z,47.02
2022-09-14T18:12:36.841Z,47.02
2022-09-14T18:15:22.793Z,46.94
2022-09-14T18:18:08.610Z,46.91
2022-09-14T18:20:54.239Z,47.03
2022-09-14T18:23:40.091Z,47.15
2022-09-14T18:26:26.741Z,47.14
2022-09-14T18:29:17.754Z,47.01
2022-09-14T18:32:03.674Z,47.24
2022-09-14T18:34:49.412Z,47.41
2022-09-14T18:37:35.256Z,47.48
2022-09-14T18:40:21.736Z,47.40
2022-09-14T18:43:08.606Z,47.59
2022-09-14T18:45:54.827Z,47.61
2022-09-14T18:48:43.671Z,47.50
2022-09-14T18:51:30.621Z,47.55
2022-09-14T18:54:16.929Z,47.72
2022-09-14T18:57:02.801Z,47.82
2022-09-14T18:59:49.507Z,47.86
2022-09-14T19:02:36.558Z,47.94
2022-09-14T19:05:23.960Z,48.08
2022-09-14T19:08:10.213Z,48.04
2022-09-14T19:10:56.169Z,48.11
2022-09-14T19:13:42.152Z,48.09
2022-09-14T19:16:29.238Z,48.37
2022-09-14T19:19:15.638Z,48.63
2022-09-14T19:22:01.617Z,48.67
2022-09-14T19:24:47.418Z,48.68
2022-09-14T19:27:33.580Z,48.81
2022-09-14T19:30:19.398Z,48.65
2022-09-14T19:33:05.278Z,48.73
2022-09-14T19:35:51.273Z,48.85
2022-09-14T19:38:37.551Z,48.78
2022-09-14T19:41:23.664Z,49.16
2022-09-14T19:44:10.952Z,49.26
2022-09-14T19:46:56.634Z,49.33
2022-09-14T19:49:42.473Z,49.35
2022-09-14T19:52:28.083Z,49.43
2022-09-14T19:55:13.690Z,49.51
2022-09-14T19:57:59.631Z,49.64
2022-09-14T20:00:45.702Z,49.62
2022-09-14T20:03:34.159Z,49.61
2022-09-14T20:06:26.700Z,49.63
2022-09-14T20:09:21.220Z,49.59
2022-09-14T20:12:06.916Z,49.73
2022-09-14T20:14:52.838Z,49.88
2022-09-14T20:17:38.610Z,49.88
2022-09-14T20:20:24.314Z,50.07
2022-09-14T20:23:10.064Z,50.04
2022-09-14T20:25:56.994Z,50.22
2022-09-14T20:28:43.541Z,49.90
2022-09-14T20:31:30.766Z,50.22
2022-09-14T20:34:20.619Z,50.27
2022-09-14T20:37:06.747Z,50.56
2022-09-14T20:39:52.825Z,50.51
2022-09-14T20:42:38.546Z,50.54
2022-09-14T20:45:24.289Z,50.56
2022-09-14T20:48:09.885Z,50.54
2022-09-14T20:50:56.686Z,50.63
2022-09-14T20:53:43.186Z,50.56
2022-09-14T20:56:31.664Z,50.63
2022-09-14T20:59:27.575Z,50.55
2022-09-14T21:02:13.383Z,50.73
2022-09-14T21:05:00.074Z,50.84
2022-09-14T21:08:01.646Z,50.82
2022-09-14T21:10:47.632Z,50.78
2022-09-14T21:13:34.398Z,50.95
2022-09-14T21:16:25.203Z,51.11
2022-09-14T21:19:27.174Z,51.03
2022-09-14T21:22:13.138Z,50.79
2022-09-14T21:24:58.836Z,50.94
2022-09-14T21:27:44.498Z,51.12
2022-09-14T21:30:31.432Z,51.10
2022-09-14T21:33:17.698Z,51.04
2022-09-14T21:36:06.224Z,51.07
2022-09-14T21:38:56.996Z,51.17
2022-09-14T21:41:44.850Z,50.85
2022-09-14T21:44:32.158Z,50.99
2022-09-14T21:47:18.208Z,51.10
2022-09-14T21:50:04.845Z,51.21
2022-09-14T21:52:50.726Z,51.13
2022-09-14T21:55:40.210Z,51.16
2022-09-14T21:58:26.207Z,51.37
2022-09-14T22:01:12.233Z,51.25
2022-09-14T22:04:03.785Z,51.61
2022-09-14T22:06:51.475Z,51.80
2022-09-14T22:09:37.228Z,51.72
2022-09-14T22:12:22.955Z,51.78
2022-09-14T22:15:09.241Z,51.92
2022-09-14T22:17:58.351Z,51.80
2022-09-14T22:20:46.180Z,51.92
2022-09-14T22:23:32.560Z,51.72
2022-09-14T22:26:20.192Z,51.58
2022-09-14T22:29:07.668Z,51.89
2022-09-14T22:31:53.459Z,51.87
2022-09-14T22:34:41.581Z,52.01
2022-09-14T22:37:27.743Z,52.08
2022-09-14T22:40:13.490Z,52.03
2022-09-14T22:42:59.105Z,52.07
2022-09-14T22:45:44.839Z,52.31
2022-09-14T22:48:31.282Z,52.19
2022-09-14T22:51:23.151Z,52.04
2022-09-14T22:54:08.856Z,52.27
2022-09-14T22:56:54.466Z,52.30
2022-09-14T22:59:39.954Z,52.44
2022-09-14T23:02:25.773Z,52.21
2022-09-14T23:05:11.746Z,52.47
2022-09-14T23:07:57.537Z,52.32
2022-09-14T23:10:43.152Z,52.44
2022-09-14T23:13:28.733Z,52.43
2022-09-14T23:16:19.865Z,52.65
2022-09-14T23:19:09.750Z,52.42
2022-09-14T23:21:55.819Z,52.44
2022-09-14T23:24:41.926Z,52.54
2022-09-14T23:27:27.881Z,52.44
2022-09-14T23:30:13.915Z,52.48
2022-09-14T23:33:00.293Z,52.46
2022-09-14T23:35:49.503Z,52.63
2022-09-14T23:38:35.459Z,52.63
2022-09-14T23:41:22.895Z,52.45
2022-09-14T23:44:12.911Z,52.55
2022-09-14T23:46:58.703Z,52.57
2022-09-14T23:49:44.461Z,52.69
2022-09-14T23:52:30.194Z,52.72
2022-09-14T23:55:16.130Z,52.57
2022-09-14T23:58:01.828Z,52.75
